<?xml version='1.0' encoding='UTF-8'?><gpx version="1.1" creator="JPX - https://github.com/jenetics/jpx" xmlns="http://www.topografix.com/GPX/1/1"><trk><trkseg><trkpt lat="44.4348998" lon="9.1045016"><ele>678.0</ele><time>2026-05-01T11:40:11.996Z</time></trkpt><trkpt lat="44.4348477" lon="9.1044443"><ele>678.0</ele><time>2026-05-01T11:40:23.996Z</time></trkpt><trkpt lat="44.4347907" lon="9.1043979"><ele>678.0</ele><time>2026-05-01T11:40:30.995Z</time></trkpt><trkpt lat="44.4347328" lon="9.1043576"><ele>678.0</ele><time>2026-05-01T11:40:38.996Z</time></trkpt><trkpt lat="44.434673" lon="9.1043161"><ele>678.0</ele><time>2026-05-01T11:40:46.997Z</time></trkpt><trkpt lat="44.4346036" lon="9.104315"><ele>678.0</ele><time>2026-05-01T11:40:52.996Z</time></trkpt><trkpt lat="44.4345328" lon="9.1043331"><ele>678.0</ele><time>2026-05-01T11:40:59.997Z</time></trkpt><trkpt lat="44.4344653" lon="9.1043389"><ele>678.5714285714286</ele><time>2026-05-01T11:41:06.997Z</time></trkpt><trkpt lat="44.4344021" lon="9.1043467"><ele>679.1428571428572</ele><time>2026-05-01T11:41:13.969Z</time></trkpt><trkpt lat="44.4343384" lon="9.1043185"><ele>679.7142857142858</ele><time>2026-05-01T11:41:21.996Z</time></trkpt><trkpt lat="44.4342764" lon="9.104294"><ele>680.2857142857142</ele><time>2026-05-01T11:41:29.954Z</time></trkpt><trkpt lat="44.4342142" lon="9.1042715"><ele>680.8571428571429</ele><time>2026-05-01T11:41:36.996Z</time></trkpt><trkpt lat="44.4341565" lon="9.1042169"><ele>681.4285714285714</ele><time>2026-05-01T11:41:50.996Z</time></trkpt><trkpt lat="44.4341003" lon="9.1041513"><ele>682.0</ele><time>2026-05-01T11:41:57.996Z</time></trkpt><trkpt lat="44.4340347" lon="9.104118"><ele>685.7142857142857</ele><time>2026-05-01T11:42:04.995Z</time></trkpt><trkpt lat="44.4339831" lon="9.1040537"><ele>689.4285714285714</ele><time>2026-05-01T11:42:13.002Z</time></trkpt><trkpt lat="44.4339224" lon="9.1040119"><ele>693.1428571428571</ele><time>2026-05-01T11:42:19.996Z</time></trkpt><trkpt lat="44.4338515" lon="9.1039863"><ele>696.8571428571429</ele><time>2026-05-01T11:42:27.996Z</time></trkpt><trkpt lat="44.4337936" lon="9.1039426"><ele>700.5714285714286</ele><time>2026-05-01T11:42:37.996Z</time></trkpt><trkpt lat="44.4337265" lon="9.1039375"><ele>704.2857142857143</ele><time>2026-05-01T11:42:46.995Z</time></trkpt><trkpt lat="44.4336613" lon="9.1039406"><ele>708.0</ele><time>2026-05-01T11:42:56.995Z</time></trkpt><trkpt lat="44.4335972" lon="9.1039069"><ele>708.4285714285714</ele><time>2026-05-01T11:43:05.996Z</time></trkpt><trkpt lat="44.4335295" lon="9.1038907"><ele>708.8571428571428</ele><time>2026-05-01T11:43:12.996Z</time></trkpt><trkpt lat="44.4334682" lon="9.1038364"><ele>709.2857142857142</ele><time>2026-05-01T11:43:20.996Z</time></trkpt><trkpt lat="44.4334393" lon="9.1037396"><ele>709.7142857142858</ele><time>2026-05-01T11:43:25.997Z</time></trkpt><trkpt lat="44.4333998" lon="9.1036556"><ele>710.1428571428571</ele><time>2026-05-01T11:43:31.995Z</time></trkpt><trkpt lat="44.4333441" lon="9.1036096"><ele>710.5714285714286</ele><time>2026-05-01T11:43:37.995Z</time></trkpt><trkpt lat="44.4332778" lon="9.1035718"><ele>711.0</ele><time>2026-05-01T11:43:44.994Z</time></trkpt><trkpt lat="44.4332293" lon="9.1035134"><ele>711.0</ele><time>2026-05-01T11:43:53.995Z</time></trkpt><trkpt lat="44.4331716" lon="9.103463"><ele>711.0</ele><time>2026-05-01T11:44:03.994Z</time></trkpt><trkpt lat="44.433109" lon="9.1034239"><ele>711.0</ele><time>2026-05-01T11:44:16.07Z</time></trkpt><trkpt lat="44.4330411" lon="9.103459"><ele>711.0</ele><time>2026-05-01T11:44:24.064Z</time></trkpt><trkpt lat="44.4329742" lon="9.1034848"><ele>711.0</ele><time>2026-05-01T11:44:30.063Z</time></trkpt><trkpt lat="44.432893" lon="9.1034756"><ele>711.0</ele><time>2026-05-01T11:44:44.995Z</time></trkpt><trkpt lat="44.4328374" lon="9.1034316"><ele>711.0</ele><time>2026-05-01T11:44:51.994Z</time></trkpt><trkpt lat="44.4327608" lon="9.1033998"><ele>707.1428571428571</ele><time>2026-05-01T11:45:09.017Z</time></trkpt><trkpt lat="44.4326974" lon="9.1034115"><ele>703.2857142857142</ele><time>2026-05-01T11:45:13.936Z</time></trkpt><trkpt lat="44.4326538" lon="9.1034771"><ele>699.4285714285713</ele><time>2026-05-01T11:45:22.994Z</time></trkpt><trkpt lat="44.4326064" lon="9.1035405"><ele>695.5714285714286</ele><time>2026-05-01T11:45:41.994Z</time></trkpt><trkpt lat="44.4325284" lon="9.1035366"><ele>691.7142857142857</ele><time>2026-05-01T11:45:49.005Z</time></trkpt><trkpt lat="44.4324586" lon="9.1035363"><ele>687.8571428571428</ele><time>2026-05-01T11:45:55.995Z</time></trkpt><trkpt lat="44.4323934" lon="9.1035389"><ele>684.0</ele><time>2026-05-01T11:46:01.994Z</time></trkpt><trkpt lat="44.4323262" lon="9.1035546"><ele>683.9999999999999</ele><time>2026-05-01T11:46:08.994Z</time></trkpt><trkpt lat="44.4322622" lon="9.1035255"><ele>684.0</ele><time>2026-05-01T11:46:16.995Z</time></trkpt><trkpt lat="44.4322005" lon="9.1034715"><ele>684.0</ele><time>2026-05-01T11:46:23.117Z</time></trkpt><trkpt lat="44.4321509" lon="9.1034071"><ele>684.0</ele><time>2026-05-01T11:46:28.994Z</time></trkpt><trkpt lat="44.4320923" lon="9.1033613"><ele>684.0</ele><time>2026-05-01T11:46:35.995Z</time></trkpt><trkpt lat="44.4320232" lon="9.1033959"><ele>683.9999999999999</ele><time>2026-05-01T11:46:47.08Z</time></trkpt><trkpt lat="44.4319665" lon="9.103441"><ele>684.0</ele><time>2026-05-01T11:46:54Z</time></trkpt><trkpt lat="44.4318953" lon="9.10342"><ele>680.8333333333334</ele><time>2026-05-01T11:47:02.084Z</time></trkpt><trkpt lat="44.4318217" lon="9.1033966"><ele>677.6666666666666</ele><time>2026-05-01T11:47:17.064Z</time></trkpt><trkpt lat="44.4317569" lon="9.1033402"><ele>674.5</ele><time>2026-05-01T11:47:24.995Z</time></trkpt><trkpt lat="44.4317221" lon="9.1032642"><ele>671.3333333333333</ele><time>2026-05-01T11:47:30.995Z</time></trkpt><trkpt lat="44.4317409" lon="9.1031692"><ele>668.1666666666666</ele><time>2026-05-01T11:48:34.995Z</time></trkpt><trkpt lat="44.4317828" lon="9.1030961"><ele>665.0</ele><time>2026-05-01T11:48:41.994Z</time></trkpt><trkpt lat="44.4317462" lon="9.1029557"><ele>671.5714285714286</ele><time>2026-05-01T11:48:46.995Z</time></trkpt><trkpt lat="44.4317018" lon="9.1028851"><ele>678.1428571428571</ele><time>2026-05-01T11:48:47.994Z</time></trkpt><trkpt lat="44.4316579" lon="9.1028051"><ele>684.7142857142858</ele><time>2026-05-01T11:48:53.915Z</time></trkpt><trkpt lat="44.4316324" lon="9.1027167"><ele>691.2857142857142</ele><time>2026-05-01T11:48:56.995Z</time></trkpt><trkpt lat="44.4315715" lon="9.1026586"><ele>697.8571428571429</ele><time>2026-05-01T11:49:02.994Z</time></trkpt><trkpt lat="44.4315161" lon="9.1026106"><ele>704.4285714285714</ele><time>2026-05-01T11:49:26.091Z</time></trkpt><trkpt lat="44.4314559" lon="9.1026536"><ele>711.0</ele><time>2026-05-01T11:49:31.957Z</time></trkpt><trkpt lat="44.4314231" lon="9.1027297"><ele>711.0</ele><time>2026-05-01T11:49:38.942Z</time></trkpt><trkpt lat="44.4313457" lon="9.1026992"><ele>711.0</ele><time>2026-05-01T11:49:48.978Z</time></trkpt><trkpt lat="44.4312928" lon="9.1026346"><ele>711.0</ele><time>2026-05-01T11:50:01.995Z</time></trkpt><trkpt lat="44.4312219" lon="9.1026229"><ele>711.0</ele><time>2026-05-01T11:50:09.994Z</time></trkpt><trkpt lat="44.4311669" lon="9.1025727"><ele>711.0</ele><time>2026-05-01T11:50:19.975Z</time></trkpt><trkpt lat="44.4310942" lon="9.1025431"><ele>711.0</ele><time>2026-05-01T11:50:27.995Z</time></trkpt><trkpt lat="44.4310416" lon="9.1024866"><ele>711.0</ele><time>2026-05-01T11:50:35.996Z</time></trkpt><trkpt lat="44.4310095" lon="9.1023979"><ele>712.5714285714286</ele><time>2026-05-01T11:50:41.995Z</time></trkpt><trkpt lat="44.430986" lon="9.1023101"><ele>714.1428571428571</ele><time>2026-05-01T11:50:48.024Z</time></trkpt><trkpt lat="44.430976" lon="9.1022197"><ele>715.7142857142858</ele><time>2026-05-01T11:50:56.06Z</time></trkpt><trkpt lat="44.4309645" lon="9.1021316"><ele>717.2857142857142</ele><time>2026-05-01T11:51:04.994Z</time></trkpt><trkpt lat="44.4309066" lon="9.1020946"><ele>718.8571428571428</ele><time>2026-05-01T11:51:11.077Z</time></trkpt><trkpt lat="44.4308388" lon="9.1020821"><ele>720.4285714285714</ele><time>2026-05-01T11:51:21.995Z</time></trkpt><trkpt lat="44.4307785" lon="9.1020391"><ele>722.0</ele><time>2026-05-01T11:51:28.994Z</time></trkpt><trkpt lat="44.4307264" lon="9.101978"><ele>722.0</ele><time>2026-05-01T11:51:36.058Z</time></trkpt><trkpt lat="44.4306525" lon="9.1019662"><ele>722.0</ele><time>2026-05-01T11:52:12.994Z</time></trkpt><trkpt lat="44.4306112" lon="9.1018721"><ele>722.0</ele><time>2026-05-01T11:53:01.995Z</time></trkpt><trkpt lat="44.4305703" lon="9.101797"><ele>722.0</ele><time>2026-05-01T11:53:10.996Z</time></trkpt><trkpt lat="44.4305138" lon="9.1017566"><ele>722.0</ele><time>2026-05-01T11:53:21.057Z</time></trkpt><trkpt lat="44.4304512" lon="9.1017285"><ele>722.0</ele><time>2026-05-01T11:53:31.063Z</time></trkpt><trkpt lat="44.4303814" lon="9.1017199"><ele>722.0</ele><time>2026-05-01T11:53:38.038Z</time></trkpt><trkpt lat="44.4303048" lon="9.1017262"><ele>724.4285714285714</ele><time>2026-05-01T11:53:43.994Z</time></trkpt><trkpt lat="44.4302411" lon="9.1017281"><ele>726.8571428571428</ele><time>2026-05-01T11:53:54.058Z</time></trkpt><trkpt lat="44.4301779" lon="9.1017539"><ele>729.2857142857142</ele><time>2026-05-01T11:54:02.995Z</time></trkpt><trkpt lat="44.4301065" lon="9.1017781"><ele>731.7142857142858</ele><time>2026-05-01T11:54:07.995Z</time></trkpt><trkpt lat="44.4300357" lon="9.1018068"><ele>734.1428571428571</ele><time>2026-05-01T11:54:13.996Z</time></trkpt><trkpt lat="44.4299747" lon="9.1018683"><ele>736.5714285714286</ele><time>2026-05-01T11:54:19.991Z</time></trkpt><trkpt lat="44.4299092" lon="9.1019044"><ele>739.0</ele><time>2026-05-01T11:54:24.991Z</time></trkpt><trkpt lat="44.4298525" lon="9.1019463"><ele>739.0</ele><time>2026-05-01T11:54:29.994Z</time></trkpt><trkpt lat="44.4297862" lon="9.1019602"><ele>739.0</ele><time>2026-05-01T11:54:35.994Z</time></trkpt><trkpt lat="44.4297133" lon="9.1019514"><ele>739.0</ele><time>2026-05-01T11:54:51.895Z</time></trkpt><trkpt lat="44.4296549" lon="9.1019855"><ele>739.0</ele><time>2026-05-01T11:54:57.994Z</time></trkpt><trkpt lat="44.4295909" lon="9.1020093"><ele>739.0</ele><time>2026-05-01T11:55:04.995Z</time></trkpt><trkpt lat="44.4295376" lon="9.1020646"><ele>739.0</ele><time>2026-05-01T11:55:15.996Z</time></trkpt><trkpt lat="44.4294727" lon="9.1020963"><ele>739.0</ele><time>2026-05-01T11:55:25.055Z</time></trkpt><trkpt lat="44.4294251" lon="9.1021593"><ele>738.4285714285714</ele><time>2026-05-01T11:55:32.088Z</time></trkpt><trkpt lat="44.4293581" lon="9.1021585"><ele>737.8571428571429</ele><time>2026-05-01T11:55:39.078Z</time></trkpt><trkpt lat="44.4293005" lon="9.1020995"><ele>737.2857142857142</ele><time>2026-05-01T11:55:45.951Z</time></trkpt><trkpt lat="44.4292447" lon="9.1020364"><ele>736.7142857142858</ele><time>2026-05-01T11:55:51.994Z</time></trkpt><trkpt lat="44.4291799" lon="9.1020408"><ele>736.1428571428571</ele><time>2026-05-01T11:56:02.082Z</time></trkpt><trkpt lat="44.4291307" lon="9.1021029"><ele>735.5714285714286</ele><time>2026-05-01T11:56:21.924Z</time></trkpt><trkpt lat="44.4290741" lon="9.102157"><ele>735.0</ele><time>2026-05-01T11:56:28.994Z</time></trkpt><trkpt lat="44.4290105" lon="9.1021648"><ele>735.0</ele><time>2026-05-01T11:56:35.994Z</time></trkpt><trkpt lat="44.4289428" lon="9.1021857"><ele>735.0</ele><time>2026-05-01T11:56:44Z</time></trkpt><trkpt lat="44.4288973" lon="9.1022586"><ele>735.0</ele><time>2026-05-01T11:56:52.917Z</time></trkpt><trkpt lat="44.4288374" lon="9.1023066"><ele>735.0</ele><time>2026-05-01T11:57:00.993Z</time></trkpt><trkpt lat="44.4287979" lon="9.1023838"><ele>735.0</ele><time>2026-05-01T11:57:10.993Z</time></trkpt><trkpt lat="44.428771" lon="9.1024651"><ele>735.0</ele><time>2026-05-01T11:57:43.994Z</time></trkpt><trkpt lat="44.4288113" lon="9.1025414"><ele>735.0</ele><time>2026-05-01T11:58:14.993Z</time></trkpt><trkpt lat="44.4288595" lon="9.1026221"><ele>734.7142857142857</ele><time>2026-05-01T11:58:20.993Z</time></trkpt><trkpt lat="44.4288669" lon="9.1027226"><ele>734.4285714285714</ele><time>2026-05-01T11:58:26.993Z</time></trkpt><trkpt lat="44.4288392" lon="9.1028048"><ele>734.1428571428571</ele><time>2026-05-01T11:58:36.015Z</time></trkpt><trkpt lat="44.4287992" lon="9.1028785"><ele>733.8571428571429</ele><time>2026-05-01T11:58:40.04Z</time></trkpt><trkpt lat="44.4287422" lon="9.1029221"><ele>733.5714285714286</ele><time>2026-05-01T11:58:44.955Z</time></trkpt><trkpt lat="44.428675" lon="9.1029256"><ele>733.2857142857142</ele><time>2026-05-01T11:58:52.993Z</time></trkpt><trkpt lat="44.4286117" lon="9.1029364"><ele>733.0</ele><time>2026-05-01T11:59:03.156Z</time></trkpt><trkpt lat="44.4285613" lon="9.1030032"><ele>733.0</ele><time>2026-05-01T11:59:13.999Z</time></trkpt><trkpt lat="44.4285371" lon="9.1030966"><ele>733.0</ele><time>2026-05-01T11:59:25.914Z</time></trkpt><trkpt lat="44.4285378" lon="9.1031856"><ele>733.0</ele><time>2026-05-01T11:59:39.993Z</time></trkpt><trkpt lat="44.4285164" lon="9.1033057"><ele>733.0</ele><time>2026-05-01T11:59:59.993Z</time></trkpt><trkpt lat="44.428418" lon="9.1034207"><ele>733.0</ele><time>2026-05-01T12:00:40.994Z</time></trkpt><trkpt lat="44.4283819" lon="9.1035042"><ele>733.0</ele><time>2026-05-01T12:00:45.936Z</time></trkpt><trkpt lat="44.4283901" lon="9.1036006"><ele>730.5714285714286</ele><time>2026-05-01T12:00:52.995Z</time></trkpt><trkpt lat="44.4282968" lon="9.1036667"><ele>728.1428571428571</ele><time>2026-05-01T12:01:10.994Z</time></trkpt><trkpt lat="44.4282413" lon="9.1037102"><ele>725.7142857142858</ele><time>2026-05-01T12:01:21.971Z</time></trkpt><trkpt lat="44.4282126" lon="9.1037947"><ele>723.2857142857142</ele><time>2026-05-01T12:01:35.079Z</time></trkpt><trkpt lat="44.42821" lon="9.1038838"><ele>720.8571428571429</ele><time>2026-05-01T12:01:44.874Z</time></trkpt><trkpt lat="44.4281482" lon="9.1039308"><ele>718.4285714285714</ele><time>2026-05-01T12:01:54.994Z</time></trkpt><trkpt lat="44.4281051" lon="9.1040065"><ele>716.0</ele><time>2026-05-01T12:02:02.993Z</time></trkpt><trkpt lat="44.4280672" lon="9.1040837"><ele>713.5714285714287</ele><time>2026-05-01T12:02:11.993Z</time></trkpt><trkpt lat="44.4280483" lon="9.1041705"><ele>711.1428571428571</ele><time>2026-05-01T12:02:21.995Z</time></trkpt><trkpt lat="44.428002" lon="9.1042354"><ele>708.7142857142858</ele><time>2026-05-01T12:02:30.996Z</time></trkpt><trkpt lat="44.4279654" lon="9.1043142"><ele>706.2857142857143</ele><time>2026-05-01T12:02:43.996Z</time></trkpt><trkpt lat="44.427924" lon="9.1043955"><ele>703.8571428571429</ele><time>2026-05-01T12:03:15.902Z</time></trkpt><trkpt lat="44.4279126" lon="9.1044866"><ele>701.4285714285714</ele><time>2026-05-01T12:03:24.993Z</time></trkpt><trkpt lat="44.4278551" lon="9.104535"><ele>699.0</ele><time>2026-05-01T12:03:36.994Z</time></trkpt><trkpt lat="44.4277926" lon="9.1045523"><ele>707.0</ele><time>2026-05-01T12:03:43.004Z</time></trkpt><trkpt lat="44.4278675" lon="9.1045274"><ele>715.0</ele><time>2026-05-01T12:04:11.993Z</time></trkpt><trkpt lat="44.4278011" lon="9.104624"><ele>723.0</ele><time>2026-05-01T12:04:39.998Z</time></trkpt><trkpt lat="44.4277397" lon="9.1046867"><ele>731.0</ele><time>2026-05-01T12:04:47.993Z</time></trkpt><trkpt lat="44.4276747" lon="9.1047081"><ele>739.0</ele><time>2026-05-01T12:04:53.994Z</time></trkpt><trkpt lat="44.4276337" lon="9.104777"><ele>747.0</ele><time>2026-05-01T12:05:03.993Z</time></trkpt><trkpt lat="44.4275832" lon="9.1048476"><ele>745.8571428571428</ele><time>2026-05-01T12:05:07.994Z</time></trkpt><trkpt lat="44.4275268" lon="9.104914"><ele>744.7142857142857</ele><time>2026-05-01T12:05:12.994Z</time></trkpt><trkpt lat="44.4274809" lon="9.1049744"><ele>743.5714285714286</ele><time>2026-05-01T12:05:18.989Z</time></trkpt><trkpt lat="44.427416" lon="9.1049921"><ele>742.4285714285713</ele><time>2026-05-01T12:05:32.993Z</time></trkpt><trkpt lat="44.4273529" lon="9.1050602"><ele>741.2857142857143</ele><time>2026-05-01T12:05:49.501Z</time></trkpt><trkpt lat="44.4272896" lon="9.1050912"><ele>740.1428571428571</ele><time>2026-05-01T12:05:55.002Z</time></trkpt><trkpt lat="44.4272291" lon="9.1050603"><ele>739.0</ele><time>2026-05-01T12:06:07.993Z</time></trkpt><trkpt lat="44.4271378" lon="9.1050468"><ele>739.0</ele><time>2026-05-01T12:06:38.807Z</time></trkpt><trkpt lat="44.4270731" lon="9.1050216"><ele>739.0</ele><time>2026-05-01T12:06:44.994Z</time></trkpt><trkpt lat="44.4270093" lon="9.1050107"><ele>739.0</ele><time>2026-05-01T12:07:10.993Z</time></trkpt><trkpt lat="44.4269417" lon="9.1050018"><ele>739.0</ele><time>2026-05-01T12:07:26.937Z</time></trkpt><trkpt lat="44.4269052" lon="9.1050797"><ele>739.0</ele><time>2026-05-01T12:07:38.993Z</time></trkpt><trkpt lat="44.4268416" lon="9.1051158"><ele>739.0</ele><time>2026-05-01T12:07:46.055Z</time></trkpt><trkpt lat="44.4267788" lon="9.1051269"><ele>739.0</ele><time>2026-05-01T12:07:51.993Z</time></trkpt><trkpt lat="44.4267146" lon="9.10512"><ele>739.0</ele><time>2026-05-01T12:08:00.936Z</time></trkpt><trkpt lat="44.4266476" lon="9.1051122"><ele>739.0</ele><time>2026-05-01T12:08:08.977Z</time></trkpt><trkpt lat="44.4265847" lon="9.1050924"><ele>739.0</ele><time>2026-05-01T12:08:15.994Z</time></trkpt><trkpt lat="44.4265258" lon="9.1050574"><ele>739.0</ele><time>2026-05-01T12:08:21.993Z</time></trkpt><trkpt lat="44.4264553" lon="9.1050586"><ele>739.0</ele><time>2026-05-01T12:08:31.993Z</time></trkpt><trkpt lat="44.426383" lon="9.1050744"><ele>739.0</ele><time>2026-05-01T12:08:42.069Z</time></trkpt><trkpt lat="44.426317" lon="9.1050693"><ele>739.0</ele><time>2026-05-01T12:08:56.994Z</time></trkpt><trkpt lat="44.4262687" lon="9.1050039"><ele>743.1428571428571</ele><time>2026-05-01T12:09:07.083Z</time></trkpt><trkpt lat="44.4262459" lon="9.1049217"><ele>747.2857142857143</ele><time>2026-05-01T12:09:14.998Z</time></trkpt><trkpt lat="44.4262146" lon="9.104836"><ele>751.4285714285713</ele><time>2026-05-01T12:09:21.144Z</time></trkpt><trkpt lat="44.4261113" lon="9.1048364"><ele>755.5714285714286</ele><time>2026-05-01T12:09:53.994Z</time></trkpt><trkpt lat="44.4260667" lon="9.1048998"><ele>759.7142857142857</ele><time>2026-05-01T12:10:00.994Z</time></trkpt><trkpt lat="44.4260231" lon="9.1049889"><ele>763.8571428571428</ele><time>2026-05-01T12:10:16.993Z</time></trkpt><trkpt lat="44.4259839" lon="9.1050615"><ele>768.0</ele><time>2026-05-01T12:10:28.064Z</time></trkpt><trkpt lat="44.4259152" lon="9.1050483"><ele>768.0</ele><time>2026-05-01T12:10:37.994Z</time></trkpt><trkpt lat="44.4258492" lon="9.1050499"><ele>768.0</ele><time>2026-05-01T12:10:47.994Z</time></trkpt><trkpt lat="44.4257843" lon="9.1050382"><ele>768.0</ele><time>2026-05-01T12:10:57.722Z</time></trkpt><trkpt lat="44.4256732" lon="9.105102"><ele>768.0</ele><time>2026-05-01T12:11:22.085Z</time></trkpt><trkpt lat="44.4255946" lon="9.1050901"><ele>768.0</ele><time>2026-05-01T12:11:39.064Z</time></trkpt><trkpt lat="44.4255498" lon="9.105023"><ele>768.0</ele><time>2026-05-01T12:11:49.063Z</time></trkpt><trkpt lat="44.4254731" lon="9.1050169"><ele>777.1666666666666</ele><time>2026-05-01T12:12:02.995Z</time></trkpt><trkpt lat="44.4254248" lon="9.1050834"><ele>786.3333333333333</ele><time>2026-05-01T12:12:08.993Z</time></trkpt><trkpt lat="44.4253629" lon="9.1051947"><ele>795.5</ele><time>2026-05-01T12:12:51.082Z</time></trkpt><trkpt lat="44.4253039" lon="9.1052277"><ele>804.6666666666666</ele><time>2026-05-01T12:13:03.9Z</time></trkpt><trkpt lat="44.4252417" lon="9.1051808"><ele>813.8333333333333</ele><time>2026-05-01T12:13:10.995Z</time></trkpt><trkpt lat="44.4251957" lon="9.1052445"><ele>823.0</ele><time>2026-05-01T12:15:27.994Z</time></trkpt><trkpt lat="44.425179" lon="9.1053649"><ele>823.0</ele><time>2026-05-01T12:16:02.935Z</time></trkpt><trkpt lat="44.4251395" lon="9.1054438"><ele>823.0</ele><time>2026-05-01T12:16:20.056Z</time></trkpt><trkpt lat="44.4250779" lon="9.1054665"><ele>823.0</ele><time>2026-05-01T12:16:28.056Z</time></trkpt><trkpt lat="44.4250145" lon="9.105499"><ele>823.0</ele><time>2026-05-01T12:16:36.993Z</time></trkpt><trkpt lat="44.4249562" lon="9.1055444"><ele>823.0</ele><time>2026-05-01T12:16:44.993Z</time></trkpt><trkpt lat="44.4249295" lon="9.1056299"><ele>823.0</ele><time>2026-05-01T12:16:55.977Z</time></trkpt><trkpt lat="44.4249707" lon="9.1057435"><ele>823.0</ele><time>2026-05-01T12:17:44.99Z</time></trkpt><trkpt lat="44.4249872" lon="9.105842"><ele>817.0</ele><time>2026-05-01T12:18:10.16Z</time></trkpt><trkpt lat="44.4249375" lon="9.1059117"><ele>811.0</ele><time>2026-05-01T12:18:18.1Z</time></trkpt><trkpt lat="44.4248747" lon="9.1059472"><ele>805.0</ele><time>2026-05-01T12:18:23.992Z</time></trkpt><trkpt lat="44.4248577" lon="9.1060448"><ele>799.0</ele><time>2026-05-01T12:18:31.992Z</time></trkpt><trkpt lat="44.4248876" lon="9.1061363"><ele>793.0</ele><time>2026-05-01T12:18:37.993Z</time></trkpt><trkpt lat="44.424886" lon="9.1062311"><ele>787.0</ele><time>2026-05-01T12:18:44.992Z</time></trkpt><trkpt lat="44.4248325" lon="9.1062837"><ele>781.0</ele><time>2026-05-01T12:18:55.872Z</time></trkpt><trkpt lat="44.4247776" lon="9.106335"><ele>781.0</ele><time>2026-05-01T12:19:04.996Z</time></trkpt><trkpt lat="44.4247137" lon="9.1063508"><ele>781.0</ele><time>2026-05-01T12:19:17.995Z</time></trkpt><trkpt lat="44.4246514" lon="9.1064008"><ele>781.0</ele><time>2026-05-01T12:19:25.992Z</time></trkpt><trkpt lat="44.4245955" lon="9.1064451"><ele>781.0</ele><time>2026-05-01T12:19:32.993Z</time></trkpt><trkpt lat="44.424531" lon="9.1064719"><ele>781.0</ele><time>2026-05-01T12:19:40.992Z</time></trkpt><trkpt lat="44.4244749" lon="9.1065148"><ele>781.0</ele><time>2026-05-01T12:19:57.992Z</time></trkpt><trkpt lat="44.42444" lon="9.106593"><ele>781.0</ele><time>2026-05-01T12:20:05.993Z</time></trkpt><trkpt lat="44.4244417" lon="9.1066876"><ele>787.0</ele><time>2026-05-01T12:20:15.994Z</time></trkpt><trkpt lat="44.424406" lon="9.1067606"><ele>787.0</ele><time>2026-05-01T12:20:42.063Z</time></trkpt><trkpt lat="44.4244749" lon="9.1067607"><ele>787.0</ele><time>2026-05-01T12:21:26.005Z</time></trkpt><trkpt lat="44.4245741" lon="9.1067476"><ele>787.0</ele><time>2026-05-01T12:21:47.044Z</time></trkpt></trkseg><trkseg><trkpt lat="44.4245434" lon="9.1068051"><ele>787.0</ele><time>2026-05-01T12:41:21.99Z</time></trkpt><trkpt lat="44.4244801" lon="9.1068234"><ele>787.0</ele><time>2026-05-01T12:41:29.991Z</time></trkpt><trkpt lat="44.424416" lon="9.1068027"><ele>787.0</ele><time>2026-05-01T12:41:38.897Z</time></trkpt><trkpt lat="44.4243576" lon="9.1068487"><ele>787.0</ele><time>2026-05-01T12:41:50.972Z</time></trkpt><trkpt lat="44.4242859" lon="9.1068498"><ele>787.0</ele><time>2026-05-01T12:41:57.99Z</time></trkpt><trkpt lat="44.4243237" lon="9.1067721"><ele>787.0</ele><time>2026-05-01T12:42:50.057Z</time></trkpt><trkpt lat="44.4243836" lon="9.1067236"><ele>787.0</ele><time>2026-05-01T12:42:59.99Z</time></trkpt><trkpt lat="44.4244147" lon="9.1066468"><ele>787.0</ele><time>2026-05-01T12:43:07.053Z</time></trkpt><trkpt lat="44.4244591" lon="9.1065787"><ele>787.0</ele><time>2026-05-01T12:43:20.878Z</time></trkpt><trkpt lat="44.4245112" lon="9.1065204"><ele>787.0</ele><time>2026-05-01T12:43:38.06Z</time></trkpt><trkpt lat="44.4245695" lon="9.106471"><ele>787.0</ele><time>2026-05-01T12:43:47.067Z</time></trkpt><trkpt lat="44.4246333" lon="9.1064269"><ele>787.0</ele><time>2026-05-01T12:43:55Z</time></trkpt><trkpt lat="44.4246869" lon="9.1063792"><ele>787.0</ele><time>2026-05-01T12:44:03.088Z</time></trkpt><trkpt lat="44.4247422" lon="9.106329"><ele>787.0</ele><time>2026-05-01T12:44:16Z</time></trkpt><trkpt lat="44.4248022" lon="9.1062947"><ele>785.9999999999999</ele><time>2026-05-01T12:44:21.991Z</time></trkpt><trkpt lat="44.4248359" lon="9.1061278"><ele>785.0</ele><time>2026-05-01T12:44:59.01Z</time></trkpt><trkpt lat="44.4248214" lon="9.1060415"><ele>784.0</ele><time>2026-05-01T12:45:09.991Z</time></trkpt><trkpt lat="44.4248286" lon="9.1059047"><ele>783.0</ele><time>2026-05-01T12:45:34.99Z</time></trkpt><trkpt lat="44.4248112" lon="9.1058196"><ele>781.9999999999999</ele><time>2026-05-01T12:46:15.991Z</time></trkpt><trkpt lat="44.4247884" lon="9.1056857"><ele>781.0</ele><time>2026-05-01T12:46:38.99Z</time></trkpt><trkpt lat="44.4248691" lon="9.1056617"><ele>787.9999999999999</ele><time>2026-05-01T12:46:52.975Z</time></trkpt><trkpt lat="44.424916" lon="9.1055556"><ele>795.0</ele><time>2026-05-01T12:47:18.99Z</time></trkpt><trkpt lat="44.4249854" lon="9.1055737"><ele>802.0</ele><time>2026-05-01T12:47:45.057Z</time></trkpt><trkpt lat="44.4250483" lon="9.1055541"><ele>809.0</ele><time>2026-05-01T12:47:50.99Z</time></trkpt><trkpt lat="44.4251052" lon="9.105514"><ele>815.9999999999999</ele><time>2026-05-01T12:47:58.012Z</time></trkpt><trkpt lat="44.4251749" lon="9.1053717"><ele>823.0</ele><time>2026-05-01T12:48:48.99Z</time></trkpt><trkpt lat="44.4252066" lon="9.1052895"><ele>823.0</ele><time>2026-05-01T12:49:23.99Z</time></trkpt><trkpt lat="44.4252488" lon="9.1052168"><ele>823.0</ele><time>2026-05-01T12:50:03.989Z</time></trkpt><trkpt lat="44.4251804" lon="9.1051893"><ele>823.0</ele><time>2026-05-01T12:50:13.989Z</time></trkpt><trkpt lat="44.4252196" lon="9.1052803"><ele>823.0</ele><time>2026-05-01T12:50:22.989Z</time></trkpt><trkpt lat="44.4252032" lon="9.1051911"><ele>823.0</ele><time>2026-05-01T12:50:25.977Z</time></trkpt><trkpt lat="44.4252277" lon="9.1052789"><ele>823.0</ele><time>2026-05-01T12:51:46.989Z</time></trkpt><trkpt lat="44.4252544" lon="9.1051963"><ele>823.0</ele><time>2026-05-01T12:52:13.056Z</time></trkpt><trkpt lat="44.4253212" lon="9.1051952"><ele>823.0</ele><time>2026-05-01T12:52:22.051Z</time></trkpt><trkpt lat="44.4253773" lon="9.1051509"><ele>823.0</ele><time>2026-05-01T12:52:37.989Z</time></trkpt><trkpt lat="44.4254461" lon="9.1051293"><ele>823.0</ele><time>2026-05-01T12:52:41.99Z</time></trkpt><trkpt lat="44.4255263" lon="9.1051086"><ele>823.0</ele><time>2026-05-01T12:52:45.99Z</time></trkpt><trkpt lat="44.4255888" lon="9.1050849"><ele>823.0</ele><time>2026-05-01T12:52:50.053Z</time></trkpt><trkpt lat="44.4256598" lon="9.1050632"><ele>823.0</ele><time>2026-05-01T12:52:54.989Z</time></trkpt><trkpt lat="44.4257248" lon="9.105075"><ele>823.0</ele><time>2026-05-01T12:53:00.99Z</time></trkpt><trkpt lat="44.4257875" lon="9.1051066"><ele>823.2857142857143</ele><time>2026-05-01T12:53:11.991Z</time></trkpt><trkpt lat="44.4258486" lon="9.105155"><ele>823.5714285714287</ele><time>2026-05-01T12:53:20.989Z</time></trkpt><trkpt lat="44.4259124" lon="9.1051549"><ele>823.8571428571429</ele><time>2026-05-01T12:53:32.989Z</time></trkpt><trkpt lat="44.4259449" lon="9.1050738"><ele>824.1428571428571</ele><time>2026-05-01T12:53:55.931Z</time></trkpt><trkpt lat="44.4259778" lon="9.1049819"><ele>824.4285714285714</ele><time>2026-05-01T12:54:01.99Z</time></trkpt><trkpt lat="44.4260171" lon="9.1049058"><ele>824.7142857142857</ele><time>2026-05-01T12:54:10.99Z</time></trkpt><trkpt lat="44.4260714" lon="9.1048609"><ele>825.0</ele><time>2026-05-01T12:54:22.991Z</time></trkpt><trkpt lat="44.4261354" lon="9.1048338"><ele>825.0</ele><time>2026-05-01T12:54:31.99Z</time></trkpt><trkpt lat="44.4262122" lon="9.1048595"><ele>825.0</ele><time>2026-05-01T12:54:48.989Z</time></trkpt><trkpt lat="44.4262493" lon="9.1049387"><ele>825.0</ele><time>2026-05-01T12:54:55.99Z</time></trkpt><trkpt lat="44.4263488" lon="9.1049976"><ele>825.0</ele><time>2026-05-01T12:55:38.994Z</time></trkpt><trkpt lat="44.4264005" lon="9.1050499"><ele>825.0</ele><time>2026-05-01T12:55:45.99Z</time></trkpt><trkpt lat="44.4264656" lon="9.1050903"><ele>825.0</ele><time>2026-05-01T12:55:57.053Z</time></trkpt><trkpt lat="44.4265276" lon="9.1051187"><ele>820.4285714285714</ele><time>2026-05-01T12:56:01.99Z</time></trkpt><trkpt lat="44.4265909" lon="9.1051522"><ele>815.8571428571429</ele><time>2026-05-01T12:56:10.982Z</time></trkpt><trkpt lat="44.4266539" lon="9.1051664"><ele>811.2857142857143</ele><time>2026-05-01T12:56:19.989Z</time></trkpt><trkpt lat="44.4267201" lon="9.1051679"><ele>806.7142857142858</ele><time>2026-05-01T12:56:28.112Z</time></trkpt><trkpt lat="44.4267732" lon="9.1051133"><ele>802.1428571428571</ele><time>2026-05-01T12:56:35.967Z</time></trkpt><trkpt lat="44.4268314" lon="9.1050609"><ele>797.5714285714287</ele><time>2026-05-01T12:56:42.908Z</time></trkpt><trkpt lat="44.4268536" lon="9.1049706"><ele>793.0</ele><time>2026-05-01T12:56:55.989Z</time></trkpt><trkpt lat="44.4269077" lon="9.1049085"><ele>793.0000000000001</ele><time>2026-05-01T12:57:02.064Z</time></trkpt><trkpt lat="44.4269826" lon="9.1048963"><ele>793.0</ele><time>2026-05-01T12:57:10.05Z</time></trkpt><trkpt lat="44.4270395" lon="9.1049363"><ele>793.0</ele><time>2026-05-01T12:57:18.056Z</time></trkpt><trkpt lat="44.4271201" lon="9.1049799"><ele>793.0</ele><time>2026-05-01T12:57:25.989Z</time></trkpt><trkpt lat="44.4271857" lon="9.1049938"><ele>793.0</ele><time>2026-05-01T12:57:30.921Z</time></trkpt><trkpt lat="44.4272548" lon="9.1050071"><ele>793.0000000000001</ele><time>2026-05-01T12:57:35.979Z</time></trkpt><trkpt lat="44.4273216" lon="9.1050229"><ele>793.0</ele><time>2026-05-01T12:57:40.99Z</time></trkpt><trkpt lat="44.4273822" lon="9.1049859"><ele>786.4285714285714</ele><time>2026-05-01T12:57:48.03Z</time></trkpt><trkpt lat="44.4274506" lon="9.1049725"><ele>779.8571428571429</ele><time>2026-05-01T12:57:56.99Z</time></trkpt><trkpt lat="44.4275124" lon="9.1049266"><ele>773.2857142857142</ele><time>2026-05-01T12:58:11.99Z</time></trkpt><trkpt lat="44.4275451" lon="9.1048418"><ele>766.7142857142858</ele><time>2026-05-01T12:58:21.957Z</time></trkpt><trkpt lat="44.42758" lon="9.1047615"><ele>760.1428571428571</ele><time>2026-05-01T12:58:32.99Z</time></trkpt><trkpt lat="44.4276335" lon="9.1046989"><ele>753.5714285714286</ele><time>2026-05-01T12:58:41.901Z</time></trkpt><trkpt lat="44.4276373" lon="9.1046086"><ele>747.0</ele><time>2026-05-01T12:58:49.99Z</time></trkpt><trkpt lat="44.4276882" lon="9.1045565"><ele>746.9999999999999</ele><time>2026-05-01T12:59:09.99Z</time></trkpt><trkpt lat="44.4277413" lon="9.1045089"><ele>747.0</ele><time>2026-05-01T12:59:23.989Z</time></trkpt><trkpt lat="44.4277831" lon="9.1044394"><ele>747.0</ele><time>2026-05-01T12:59:29.945Z</time></trkpt><trkpt lat="44.4278291" lon="9.1043694"><ele>747.0</ele><time>2026-05-01T12:59:36.98Z</time></trkpt><trkpt lat="44.4279045" lon="9.1043365"><ele>747.0</ele><time>2026-05-01T12:59:58.989Z</time></trkpt><trkpt lat="44.4279505" lon="9.1042089"><ele>746.9999999999999</ele><time>2026-05-01T13:00:58.919Z</time></trkpt><trkpt lat="44.4280102" lon="9.1041621"><ele>747.0</ele><time>2026-05-01T13:01:05.99Z</time></trkpt><trkpt lat="44.4280651" lon="9.104081"><ele>742.5714285714286</ele><time>2026-05-01T13:01:19.989Z</time></trkpt><trkpt lat="44.4280982" lon="9.1039973"><ele>738.1428571428571</ele><time>2026-05-01T13:01:23.99Z</time></trkpt><trkpt lat="44.4281391" lon="9.1039291"><ele>733.7142857142858</ele><time>2026-05-01T13:01:28.989Z</time></trkpt><trkpt lat="44.4281993" lon="9.1038911"><ele>729.2857142857142</ele><time>2026-05-01T13:01:37.99Z</time></trkpt><trkpt lat="44.428259" lon="9.1038398"><ele>724.8571428571429</ele><time>2026-05-01T13:01:54.053Z</time></trkpt><trkpt lat="44.4283029" lon="9.1037722"><ele>720.4285714285714</ele><time>2026-05-01T13:02:07.99Z</time></trkpt><trkpt lat="44.4283394" lon="9.1036981"><ele>716.0</ele><time>2026-05-01T13:02:24.994Z</time></trkpt><trkpt lat="44.4284066" lon="9.1036619"><ele>716.0000000000001</ele><time>2026-05-01T13:02:48.989Z</time></trkpt><trkpt lat="44.4284755" lon="9.1036437"><ele>716.0</ele><time>2026-05-01T13:02:56.376Z</time></trkpt><trkpt lat="44.428484" lon="9.1035462"><ele>716.0</ele><time>2026-05-01T13:03:16.989Z</time></trkpt><trkpt lat="44.4285484" lon="9.1034636"><ele>716.0</ele><time>2026-05-01T13:03:39.049Z</time></trkpt><trkpt lat="44.4286065" lon="9.1034217"><ele>716.0</ele><time>2026-05-01T13:03:43.018Z</time></trkpt><trkpt lat="44.428644" lon="9.1033385"><ele>716.0000000000001</ele><time>2026-05-01T13:03:45.989Z</time></trkpt><trkpt lat="44.4286464" lon="9.1032483"><ele>716.0</ele><time>2026-05-01T13:03:52.016Z</time></trkpt><trkpt lat="44.4286001" lon="9.103173"><ele>718.4285714285714</ele><time>2026-05-01T13:04:00.989Z</time></trkpt><trkpt lat="44.4285756" lon="9.1030613"><ele>720.8571428571429</ele><time>2026-05-01T13:04:18.989Z</time></trkpt><trkpt lat="44.4285791" lon="9.1029719"><ele>723.2857142857142</ele><time>2026-05-01T13:04:23.977Z</time></trkpt><trkpt lat="44.4286062" lon="9.1028811"><ele>725.7142857142858</ele><time>2026-05-01T13:04:31.936Z</time></trkpt><trkpt lat="44.4286545" lon="9.1028218"><ele>728.1428571428571</ele><time>2026-05-01T13:04:38.615Z</time></trkpt><trkpt lat="44.4287168" lon="9.1028082"><ele>730.5714285714286</ele><time>2026-05-01T13:04:43.997Z</time></trkpt><trkpt lat="44.4287773" lon="9.1028524"><ele>733.0</ele><time>2026-05-01T13:04:47.993Z</time></trkpt><trkpt lat="44.4288355" lon="9.1027829"><ele>732.9999999999999</ele><time>2026-05-01T13:04:52.99Z</time></trkpt><trkpt lat="44.4288701" lon="9.1026922"><ele>733.0</ele><time>2026-05-01T13:05:05.99Z</time></trkpt><trkpt lat="44.4288225" lon="9.1026223"><ele>733.0</ele><time>2026-05-01T13:05:11.989Z</time></trkpt><trkpt lat="44.4287764" lon="9.1025577"><ele>733.0</ele><time>2026-05-01T13:05:17.989Z</time></trkpt><trkpt lat="44.4287168" lon="9.102522"><ele>733.0</ele><time>2026-05-01T13:05:39.991Z</time></trkpt><trkpt lat="44.4287393" lon="9.1024359"><ele>732.9999999999999</ele><time>2026-05-01T13:05:47.005Z</time></trkpt><trkpt lat="44.4287634" lon="9.1023432"><ele>733.0</ele><time>2026-05-01T13:05:55.99Z</time></trkpt><trkpt lat="44.4288262" lon="9.10232"><ele>733.2857142857142</ele><time>2026-05-01T13:06:12.989Z</time></trkpt><trkpt lat="44.4288847" lon="9.1022661"><ele>733.5714285714286</ele><time>2026-05-01T13:06:21.99Z</time></trkpt><trkpt lat="44.4289232" lon="9.1021839"><ele>733.8571428571429</ele><time>2026-05-01T13:06:37.959Z</time></trkpt><trkpt lat="44.4289801" lon="9.1021453"><ele>734.1428571428571</ele><time>2026-05-01T13:06:47.051Z</time></trkpt><trkpt lat="44.4290157" lon="9.1020655"><ele>734.4285714285714</ele><time>2026-05-01T13:06:59.99Z</time></trkpt><trkpt lat="44.4290784" lon="9.1020267"><ele>734.7142857142857</ele><time>2026-05-01T13:07:06.991Z</time></trkpt><trkpt lat="44.4291544" lon="9.1020271"><ele>735.0</ele><time>2026-05-01T13:07:20.99Z</time></trkpt><trkpt lat="44.429222" lon="9.1020094"><ele>735.0</ele><time>2026-05-01T13:07:28.074Z</time></trkpt><trkpt lat="44.4292744" lon="9.1019561"><ele>735.0</ele><time>2026-05-01T13:07:36.003Z</time></trkpt><trkpt lat="44.4293362" lon="9.1019384"><ele>735.0</ele><time>2026-05-01T13:07:43.989Z</time></trkpt><trkpt lat="44.4294014" lon="9.1019611"><ele>735.0</ele><time>2026-05-01T13:07:53.12Z</time></trkpt><trkpt lat="44.4294647" lon="9.102008"><ele>735.0</ele><time>2026-05-01T13:07:59.989Z</time></trkpt><trkpt lat="44.4295256" lon="9.1020488"><ele>735.0</ele><time>2026-05-01T13:08:07.116Z</time></trkpt><trkpt lat="44.4295739" lon="9.1021111"><ele>735.0</ele><time>2026-05-01T13:08:16.078Z</time></trkpt><trkpt lat="44.4296413" lon="9.1021387"><ele>735.5714285714286</ele><time>2026-05-01T13:08:24.08Z</time></trkpt><trkpt lat="44.4297214" lon="9.1021422"><ele>736.1428571428571</ele><time>2026-05-01T13:08:31.476Z</time></trkpt><trkpt lat="44.4297934" lon="9.1021367"><ele>736.7142857142858</ele><time>2026-05-01T13:08:36.958Z</time></trkpt><trkpt lat="44.4298565" lon="9.1021305"><ele>737.2857142857142</ele><time>2026-05-01T13:08:44.989Z</time></trkpt><trkpt lat="44.4299205" lon="9.1021214"><ele>737.8571428571429</ele><time>2026-05-01T13:08:52.99Z</time></trkpt><trkpt lat="44.4299827" lon="9.1020994"><ele>738.4285714285714</ele><time>2026-05-01T13:08:59.989Z</time></trkpt><trkpt lat="44.4300527" lon="9.1021041"><ele>739.0</ele><time>2026-05-01T13:09:05.622Z</time></trkpt><trkpt lat="44.4301223" lon="9.1020846"><ele>739.0</ele><time>2026-05-01T13:09:11.99Z</time></trkpt><trkpt lat="44.4301856" lon="9.1020665"><ele>739.0</ele><time>2026-05-01T13:09:18.989Z</time></trkpt><trkpt lat="44.4302543" lon="9.1020574"><ele>739.0</ele><time>2026-05-01T13:09:25.989Z</time></trkpt><trkpt lat="44.4303236" lon="9.1020407"><ele>739.0</ele><time>2026-05-01T13:09:33.99Z</time></trkpt><trkpt lat="44.4303991" lon="9.1020028"><ele>739.0</ele><time>2026-05-01T13:09:49.998Z</time></trkpt><trkpt lat="44.4304569" lon="9.1019644"><ele>739.0</ele><time>2026-05-01T13:10:45.99Z</time></trkpt><trkpt lat="44.4304901" lon="9.1018815"><ele>739.0</ele><time>2026-05-01T13:11:01.996Z</time></trkpt><trkpt lat="44.4305599" lon="9.1018672"><ele>736.5714285714286</ele><time>2026-05-01T13:11:19.078Z</time></trkpt><trkpt lat="44.4306295" lon="9.1018998"><ele>734.1428571428571</ele><time>2026-05-01T13:11:30.023Z</time></trkpt><trkpt lat="44.430698" lon="9.1018992"><ele>731.7142857142858</ele><time>2026-05-01T13:11:34.989Z</time></trkpt><trkpt lat="44.4307612" lon="9.1018989"><ele>729.2857142857142</ele><time>2026-05-01T13:11:39.99Z</time></trkpt><trkpt lat="44.430817" lon="9.1019459"><ele>726.8571428571428</ele><time>2026-05-01T13:11:48.976Z</time></trkpt><trkpt lat="44.4308474" lon="9.1020288"><ele>724.4285714285714</ele><time>2026-05-01T13:12:01.053Z</time></trkpt><trkpt lat="44.4308759" lon="9.1021245"><ele>722.0</ele><time>2026-05-01T13:12:09.052Z</time></trkpt><trkpt lat="44.4309502" lon="9.1021804"><ele>722.0</ele><time>2026-05-01T13:12:15.111Z</time></trkpt><trkpt lat="44.4310096" lon="9.1022197"><ele>722.0</ele><time>2026-05-01T13:12:20.989Z</time></trkpt><trkpt lat="44.4310701" lon="9.1022486"><ele>722.0</ele><time>2026-05-01T13:12:28.993Z</time></trkpt><trkpt lat="44.4311167" lon="9.1023154"><ele>722.0</ele><time>2026-05-01T13:12:35.99Z</time></trkpt><trkpt lat="44.4311388" lon="9.1024087"><ele>722.0</ele><time>2026-05-01T13:12:40.975Z</time></trkpt><trkpt lat="44.4311826" lon="9.1024757"><ele>722.0</ele><time>2026-05-01T13:12:55.056Z</time></trkpt><trkpt lat="44.431252" lon="9.1024932"><ele>722.0</ele><time>2026-05-01T13:13:02.989Z</time></trkpt><trkpt lat="44.4313153" lon="9.1025243"><ele>720.4285714285714</ele><time>2026-05-01T13:13:08.99Z</time></trkpt><trkpt lat="44.4313831" lon="9.1025075"><ele>718.8571428571428</ele><time>2026-05-01T13:13:16.99Z</time></trkpt><trkpt lat="44.4314492" lon="9.1025242"><ele>717.2857142857142</ele><time>2026-05-01T13:13:23.989Z</time></trkpt><trkpt lat="44.4315" lon="9.1025823"><ele>715.7142857142858</ele><time>2026-05-01T13:13:28.991Z</time></trkpt><trkpt lat="44.4315536" lon="9.1026389"><ele>714.1428571428571</ele><time>2026-05-01T13:13:33.99Z</time></trkpt><trkpt lat="44.4316186" lon="9.1026734"><ele>712.5714285714286</ele><time>2026-05-01T13:13:38.989Z</time></trkpt><trkpt lat="44.4316732" lon="9.1027273"><ele>711.0</ele><time>2026-05-01T13:13:44.99Z</time></trkpt><trkpt lat="44.431687" lon="9.1028149"><ele>711.0</ele><time>2026-05-01T13:13:51.989Z</time></trkpt><trkpt lat="44.4316869" lon="9.1029155"><ele>711.0</ele><time>2026-05-01T13:14:00.99Z</time></trkpt><trkpt lat="44.4317237" lon="9.1030039"><ele>711.0</ele><time>2026-05-01T13:14:08.066Z</time></trkpt><trkpt lat="44.431771" lon="9.103081"><ele>711.0</ele><time>2026-05-01T13:14:18.04Z</time></trkpt><trkpt lat="44.431746" lon="9.1031705"><ele>711.0</ele><time>2026-05-01T13:14:29.99Z</time></trkpt><trkpt lat="44.4318053" lon="9.1032272"><ele>711.0</ele><time>2026-05-01T13:15:06.99Z</time></trkpt><trkpt lat="44.4318478" lon="9.1032952"><ele>711.0</ele><time>2026-05-01T13:15:12.977Z</time></trkpt><trkpt lat="44.4319115" lon="9.10334"><ele>707.1428571428571</ele><time>2026-05-01T13:15:21.052Z</time></trkpt><trkpt lat="44.4319724" lon="9.1033041"><ele>703.2857142857142</ele><time>2026-05-01T13:15:32.99Z</time></trkpt><trkpt lat="44.4320349" lon="9.1033408"><ele>699.4285714285713</ele><time>2026-05-01T13:15:39.007Z</time></trkpt><trkpt lat="44.4321009" lon="9.1033793"><ele>695.5714285714286</ele><time>2026-05-01T13:15:43.99Z</time></trkpt><trkpt lat="44.4321702" lon="9.1034193"><ele>691.7142857142857</ele><time>2026-05-01T13:15:49.989Z</time></trkpt><trkpt lat="44.4322385" lon="9.1034269"><ele>687.8571428571428</ele><time>2026-05-01T13:16:00.99Z</time></trkpt><trkpt lat="44.4322973" lon="9.1034773"><ele>684.0</ele><time>2026-05-01T13:16:06.988Z</time></trkpt><trkpt lat="44.4323623" lon="9.1035204"><ele>683.9999999999999</ele><time>2026-05-01T13:16:13.988Z</time></trkpt><trkpt lat="44.4324077" lon="9.103586"><ele>684.0</ele><time>2026-05-01T13:16:19.989Z</time></trkpt><trkpt lat="44.4324779" lon="9.1035905"><ele>684.0</ele><time>2026-05-01T13:16:25.988Z</time></trkpt><trkpt lat="44.4325384" lon="9.1035328"><ele>684.0</ele><time>2026-05-01T13:16:31.989Z</time></trkpt><trkpt lat="44.4325833" lon="9.1034524"><ele>684.0</ele><time>2026-05-01T13:16:37.989Z</time></trkpt><trkpt lat="44.4326394" lon="9.1033975"><ele>683.9999999999999</ele><time>2026-05-01T13:16:52.931Z</time></trkpt><trkpt lat="44.4327002" lon="9.1033432"><ele>684.0</ele><time>2026-05-01T13:16:58.974Z</time></trkpt><trkpt lat="44.4327727" lon="9.1033306"><ele>683.9999999999999</ele><time>2026-05-01T13:17:06.988Z</time></trkpt><trkpt lat="44.4328392" lon="9.103367"><ele>684.0</ele><time>2026-05-01T13:17:13.993Z</time></trkpt><trkpt lat="44.4328935" lon="9.1034279"><ele>684.0</ele><time>2026-05-01T13:17:21.99Z</time></trkpt><trkpt lat="44.4329555" lon="9.103462"><ele>684.0</ele><time>2026-05-01T13:17:28.988Z</time></trkpt><trkpt lat="44.4330234" lon="9.1034776"><ele>684.0</ele><time>2026-05-01T13:17:35.988Z</time></trkpt><trkpt lat="44.4330937" lon="9.1034919"><ele>683.9999999999999</ele><time>2026-05-01T13:17:41Z</time></trkpt><trkpt lat="44.4331648" lon="9.1035255"><ele>684.0</ele><time>2026-05-01T13:18:06.998Z</time></trkpt><trkpt lat="44.4332222" lon="9.1035941"><ele>687.8571428571428</ele><time>2026-05-01T13:18:11.989Z</time></trkpt><trkpt lat="44.4332618" lon="9.103677"><ele>691.7142857142857</ele><time>2026-05-01T13:18:18.988Z</time></trkpt><trkpt lat="44.4333236" lon="9.1037393"><ele>695.5714285714286</ele><time>2026-05-01T13:18:35.932Z</time></trkpt><trkpt lat="44.4333805" lon="9.1037996"><ele>699.4285714285713</ele><time>2026-05-01T13:18:42.989Z</time></trkpt><trkpt lat="44.4334381" lon="9.103849"><ele>703.2857142857142</ele><time>2026-05-01T13:18:49.947Z</time></trkpt><trkpt lat="44.4334979" lon="9.1038937"><ele>707.1428571428571</ele><time>2026-05-01T13:18:56.989Z</time></trkpt><trkpt lat="44.4335589" lon="9.103936"><ele>711.0</ele><time>2026-05-01T13:19:02.988Z</time></trkpt><trkpt lat="44.4336248" lon="9.10395"><ele>711.0</ele><time>2026-05-01T13:19:08.988Z</time></trkpt><trkpt lat="44.4336956" lon="9.1039444"><ele>711.0</ele><time>2026-05-01T13:19:13.99Z</time></trkpt><trkpt lat="44.43377" lon="9.1039487"><ele>711.0</ele><time>2026-05-01T13:19:19.989Z</time></trkpt><trkpt lat="44.4338333" lon="9.1039934"><ele>711.0</ele><time>2026-05-01T13:19:24.953Z</time></trkpt><trkpt lat="44.4338837" lon="9.1040556"><ele>711.0</ele><time>2026-05-01T13:19:30.937Z</time></trkpt><trkpt lat="44.4339423" lon="9.1041045"><ele>711.0</ele><time>2026-05-01T13:19:36.988Z</time></trkpt><trkpt lat="44.4339871" lon="9.1041697"><ele>711.0</ele><time>2026-05-01T13:19:43.989Z</time></trkpt><trkpt lat="44.4340458" lon="9.1042113"><ele>706.8571428571429</ele><time>2026-05-01T13:19:50.988Z</time></trkpt><trkpt lat="44.4341097" lon="9.104199"><ele>702.7142857142857</ele><time>2026-05-01T13:20:08.988Z</time></trkpt><trkpt lat="44.4341685" lon="9.1042311"><ele>698.5714285714286</ele><time>2026-05-01T13:20:11.989Z</time></trkpt><trkpt lat="44.4342315" lon="9.1042754"><ele>694.4285714285714</ele><time>2026-05-01T13:20:17.994Z</time></trkpt><trkpt lat="44.4342966" lon="9.1043322"><ele>690.2857142857143</ele><time>2026-05-01T13:20:29.988Z</time></trkpt><trkpt lat="44.4343595" lon="9.1043463"><ele>686.1428571428571</ele><time>2026-05-01T13:20:33.989Z</time></trkpt><trkpt lat="44.434429" lon="9.1043365"><ele>682.0</ele><time>2026-05-01T13:20:40.99Z</time></trkpt><trkpt lat="44.4344924" lon="9.1043533"><ele>682.0</ele><time>2026-05-01T13:20:46.99Z</time></trkpt><trkpt lat="44.4345591" lon="9.1043684"><ele>682.0</ele><time>2026-05-01T13:20:53.989Z</time></trkpt><trkpt lat="44.4346251" lon="9.1043636"><ele>682.0</ele><time>2026-05-01T13:21:00.956Z</time></trkpt><trkpt lat="44.4346929" lon="9.1043776"><ele>678.0</ele><time>2026-05-01T13:21:06.99Z</time></trkpt><trkpt lat="44.4347548" lon="9.1044113"><ele>678.0</ele><time>2026-05-01T13:21:12.989Z</time></trkpt><trkpt lat="44.4348122" lon="9.1044479"><ele>678.0</ele><time>2026-05-01T13:21:18.989Z</time></trkpt><trkpt lat="44.434873" lon="9.1044766"><ele>678.0</ele><time>2026-05-01T13:21:24.988Z</time></trkpt></trkseg></trk></gpx>